Saturday, December 15, 2018, 11:37 PM EST
Back to Local

KFVE, Northern Aroostook Regional

Location: Saint Agatha, ME, United States Lat: 47.283
Local Time: 11:37 PM EST ( 4:37 GMT) Lon: -68.3
Time Zone: US/Eastern Elev: 987 ft

Show me the last for .
Show Decoded

2018-12-15 22:53 METAR KFVE 160353Z AUTO 26004KT 10SM CLR M01/M04 A3018 RMK AO2 SLP228 T10061044
                 TSNO =
2018-12-15 21:53 METAR KFVE 160253Z AUTO 29004KT 10SM CLR M01/M04 A3017 RMK AO2 SLP225 T10061044
                 53003 TSNO =
2018-12-15 20:53 METAR KFVE 160153Z AUTO 28008KT 10SM CLR 00/M05 A3016 RMK AO2 SLP222 T00001050
                 TSNO =
2018-12-15 19:53 METAR KFVE 160053Z AUTO 30009KT 10SM SCT040 02/M04 A3016 RMK AO2 SLP223
                 T00171044 TSNO =
2018-12-15 18:53 METAR KFVE 152353Z AUTO 30010KT 10SM OVC040 02/M04 A3016 RMK AO2 SLP222
                 T00171044 10033 20017 51023 TSNO =
2018-12-15 17:53 METAR KFVE 152253Z AUTO 31008KT 10SM OVC038 02/M05 A3013 RMK AO2 SLP214
                 T00221050 TSNO =
2018-12-15 16:53 METAR KFVE 152153Z AUTO 29011KT 10SM FEW033 OVC042 02/M04 A3012 RMK AO2 SLP207
                 T00221039 TSNO =
2018-12-15 15:53 METAR KFVE 152053Z AUTO 30010KT 10SM OVC044 02/M03 A3009 RMK AO2 SLP198
                 T00221033 53029 TSNO =
2018-12-15 14:53 METAR KFVE 151953Z AUTO 29011KT 10SM BKN030 OVC034 03/M03 A3005 RMK AO2 SLP185
                 T00281033 TSNO =
2018-12-15 14:25 METAR KFVE 151925Z AUTO 31009KT 10SM BKN030 BKN039 OVC048 03/M03 A3004 RMK AO2
                 T00331028 TSNO =
2018-12-15 13:53 METAR KFVE 151853Z AUTO 31011KT 10SM BKN029 OVC035 03/M03 A3002 RMK AO2 SLP176
                 T00281028 TSNO =
2018-12-15 13:23 METAR KFVE 151823Z AUTO 29014G19KT 10SM SCT022 BKN027 BKN034 03/M03 A3001 RMK
                 AO2 T00281028 TSNO =
2018-12-15 12:53 METAR KFVE 151753Z AUTO 27011KT 10SM FEW030 OVC042 03/M02 A3000 RMK AO2 SLP168
                 T00281022 10028 20011 53005 TSNO =
2018-12-15 11:53 METAR KFVE 151653Z AUTO 28011KT 10SM SCT032 OVC049 02/M02 A2999 RMK AO2 SLP163
                 T00221022 =
2018-12-15 10:53 METAR KFVE 151553Z AUTO 27008KT 10SM OVC048 02/M02 A2998 RMK AO2 SLP162
                 T00221017 =
2018-12-15 09:53 METAR KFVE 151453Z AUTO 26009KT 10SM OVC044 02/M02 A2999 RMK AO2 SLP164
                 T00171017 51022 =
2018-12-15 08:53 METAR KFVE 151353Z AUTO 26008KT 10SM OVC039 02/M01 A2996 RMK AO2 SLP156
                 T00171011 =
2018-12-15 07:53 METAR KFVE 151253Z AUTO 26007KT 10SM FEW020 OVC044 02/M01 A2995 RMK AO2 SLP151
                 T00171011 =
2018-12-15 06:53 METAR KFVE 151153Z AUTO 25006KT 10SM FEW010 OVC035 01/M01 A2992 RMK AO2 SNB28E41
                 SLP140 P0000 60000 70001 I6000 T00111011 10011 21006 53002 =
2018-12-15 06:19 METAR KFVE 151119Z AUTO 20003KT 6SM BR FEW008 OVC014 01/M02 A2991 RMK AO2
                 T00061017 =
2018-12-15 06:06 METAR KFVE 151106Z AUTO 14003KT 6SM BR BKN010 OVC015 01/M02 A2991 RMK AO2 CIG
                 007V012 T00061017 =
2018-12-15 05:53 METAR KFVE 151053Z AUTO 00000KT 9SM BKN009 OVC015 01/M01 A2991 RMK AO2 CIG
                 007V014 SLP139 T00111011 =
2018-12-15 05:29 METAR KFVE 151029Z AUTO 17004KT 5SM BR BKN006 OVC010 01/M01 A2990 RMK AO2
                 T00061011 =
2018-12-15 05:12 METAR KFVE 151012Z AUTO 16004KT 4SM BR OVC003 01/M02 A2991 RMK AO2 T00061017 =
2018-12-15 05:03 METAR KFVE 151003Z AUTO 14003KT 2SM BR OVC002 01/M02 A2991 RMK AO2 T00061017 =
2018-12-15 05:01 METAR KFVE 151001Z AUTO 15003KT 1 1/2SM BR OVC002 01/M02 A2991 RMK AO2 T00061017
                 =
2018-12-15 04:53 METAR KFVE 150953Z AUTO 00000KT 3/4SM HZ VV002 01/M02 A2991 RMK AO2 SLP139 I1000
                 T00061022 =
2018-12-15 04:49 METAR KFVE 150949Z AUTO 11003KT 3/4SM HZ VV002 01/M02 A2991 RMK AO2 I1000 =
2018-12-15 04:39 METAR KFVE 150939Z AUTO 00000KT 1 1/2SM BR OVC002 01/M01 A2991 RMK AO2 I1000
                 T00061011 =
2018-12-15 04:27 METAR KFVE 150927Z AUTO 14004KT 1/2SM FG VV002 00/M02 A2990 RMK AO2 I1000
                 T00001017 =
2018-12-15 04:10 METAR KFVE 150910Z AUTO 17005KT 1SM BR VV002 01/M02 A2990 RMK AO2 VIS 3/4V1 3/4
                 I1000 T00061017 =
2018-12-15 03:53 METAR KFVE 150853Z AUTO 13003KT 1/4SM FG VV002 00/M02 A2990 RMK AO2 SLP135 60000
                 T00001017 57009 =
2018-12-15 02:53 METAR KFVE 150753Z AUTO 21006KT 1/2SM FG VV002 00/M02 A2991 RMK AO2 SNE08B28E51
                 SLP139 P0000 T00001022 =
2018-12-15 02:28 METAR KFVE 150728Z AUTO 19007KT 1/2SM -SN FG VV002 00/M02 A2990 RMK AO2 SNE08B28
                 P0000 T00001022 =
2018-12-15 02:08 METAR KFVE 150708Z AUTO 19008KT 1 1/4SM BR OVC002 M01/M02 A2991 RMK AO2 SNE08
                 P0000 T10061022 =
2018-12-15 02:03 METAR KFVE 150703Z AUTO 20008KT 1 3/4SM -SN BR OVC002 M01/M02 A2991 RMK AO2
                 P0000 T10061022 =
2018-12-15 01:53 METAR KFVE 150653Z AUTO 19007KT 1SM -SN BR VV002 M01/M02 A2991 RMK AO2 SNB30
                 SLP142 P0000 T10061022 =
2018-12-15 01:45 METAR KFVE 150645Z AUTO 19008KT 1 1/2SM -SN BR OVC002 M01/M03 A2991 RMK AO2
                 SNB30 P0000 T10061028 =
2018-12-15 01:35 METAR KFVE 150635Z AUTO 19007KT 2 1/2SM -SN BR OVC002 M01/M03 A2992 RMK AO2
                 SNB30 P0000 T10061028 =
2018-12-15 00:53 METAR KFVE 150553Z AUTO 18007KT 5SM BR OVC002 M01/M03 A2992 RMK AO2 SLP146 60001
                 T10061028 11006 21033 56027 =
2018-12-14 23:53 METAR KFVE 150453Z AUTO 18006KT 6SM BR OVC002 M01/M03 A2995 RMK AO2 SNE08 SLP154
                 P0000 T10061028 410061156 =

Support USWX by starting your Amazon purchase here.